createdAt,value
2023-05-19T00:01:01.544Z,8.80
2023-05-19T00:03:34.048Z,8.80
2023-05-19T00:06:06.210Z,8.70
2023-05-19T00:08:37.907Z,8.60
2023-05-19T00:11:09.226Z,8.60
2023-05-19T00:13:42.291Z,8.60
2023-05-19T00:16:14.865Z,8.60
2023-05-19T00:18:45.178Z,8.50
2023-05-19T00:21:15.375Z,8.60
2023-05-19T00:23:45.649Z,8.50
2023-05-19T00:26:15.978Z,8.50
2023-05-19T00:28:48.636Z,8.40
2023-05-19T00:31:18.833Z,8.40
2023-05-19T00:33:48.964Z,8.40
2023-05-19T00:36:19.098Z,8.30
2023-05-19T00:38:49.165Z,8.30
2023-05-19T00:41:19.273Z,8.40
2023-05-19T00:43:52.301Z,8.30
2023-05-19T00:46:23.218Z,8.30
2023-05-19T00:48:53.404Z,8.30
2023-05-19T00:51:23.730Z,8.20
2023-05-19T00:53:54.215Z,8.20
2023-05-19T00:56:24.590Z,8.20
2023-05-19T00:58:58.353Z,8.10
2023-05-19T01:01:28.727Z,8.00
2023-05-19T01:03:59.774Z,8.00
2023-05-19T01:06:30.643Z,7.90
2023-05-19T01:09:00.864Z,7.90
2023-05-19T01:11:30.916Z,7.90
2023-05-19T01:14:03.721Z,7.90
2023-05-19T01:16:39.989Z,7.80
2023-05-19T01:19:35.357Z,7.80
2023-05-19T01:22:43.028Z,7.80
2023-05-19T01:25:56.257Z,7.70
2023-05-19T01:29:01.023Z,7.70
2023-05-19T01:31:34.416Z,7.60
2023-05-19T01:34:06.476Z,7.60
2023-05-19T01:36:37.528Z,7.60
2023-05-19T01:39:08.107Z,7.50
2023-05-19T01:41:38.643Z,7.50
2023-05-19T01:44:09.185Z,7.50
2023-05-19T01:46:42.804Z,7.40
2023-05-19T01:49:12.960Z,7.40
2023-05-19T01:51:44.315Z,7.40
2023-05-19T01:54:14.455Z,7.40
2023-05-19T01:57:00.347Z,7.40
2023-05-19T01:59:44.293Z,7.40
2023-05-19T02:02:29.858Z,7.40
2023-05-19T02:05:08.917Z,7.30
2023-05-19T02:07:47.981Z,7.30
2023-05-19T02:10:25.738Z,7.30
2023-05-19T02:12:57.280Z,7.20
2023-05-19T02:15:29.613Z,7.20
2023-05-19T02:18:04.704Z,7.20
2023-05-19T02:20:35.250Z,7.20
2023-05-19T02:23:05.390Z,7.30
2023-05-19T02:25:35.630Z,7.20
2023-05-19T02:28:06.917Z,7.20
2023-05-19T02:30:37.077Z,7.20
2023-05-19T02:33:11.608Z,7.30
2023-05-19T02:35:41.710Z,7.30
2023-05-19T02:38:11.765Z,7.30
2023-05-19T02:40:41.886Z,7.30
2023-05-19T02:43:12.193Z,7.30
2023-05-19T02:45:42.458Z,7.30
2023-05-19T02:48:15.182Z,7.40
2023-05-19T02:50:45.269Z,7.40
2023-05-19T02:53:15.360Z,7.40
2023-05-19T02:55:45.976Z,7.40
2023-05-19T02:58:16.037Z,7.40
2023-05-19T03:00:46.936Z,7.50
2023-05-19T03:03:20.029Z,7.40
2023-05-19T03:05:50.246Z,7.40
2023-05-19T03:08:20.353Z,7.40
2023-05-19T03:10:51.151Z,7.40
2023-05-19T03:13:21.197Z,7.40
2023-05-19T03:15:51.650Z,7.40
2023-05-19T03:18:24.944Z,7.40
2023-05-19T03:20:55.779Z,7.40
2023-05-19T03:23:26.745Z,7.40
2023-05-19T03:25:56.969Z,7.40
2023-05-19T03:28:27.469Z,7.40
2023-05-19T03:30:57.590Z,7.40
2023-05-19T03:33:30.847Z,7.40
2023-05-19T03:36:01.079Z,7.40
2023-05-19T03:38:31.194Z,7.40
2023-05-19T03:41:01.261Z,7.40
2023-05-19T03:43:31.363Z,7.40
2023-05-19T03:46:02.433Z,7.40
2023-05-19T03:48:35.241Z,7.50
2023-05-19T03:51:05.301Z,7.40
2023-05-19T03:53:35.397Z,7.40
2023-05-19T03:56:05.656Z,7.50
2023-05-19T03:58:37.220Z,7.50
2023-05-19T04:01:07.462Z,7.50
2023-05-19T04:03:40.294Z,7.60
2023-05-19T04:06:11.301Z,7.60
2023-05-19T04:08:42.072Z,7.70
2023-05-19T04:11:12.404Z,7.70
2023-05-19T04:13:42.526Z,7.80
2023-05-19T04:16:12.838Z,7.90
2023-05-19T04:18:46.655Z,8.00
2023-05-19T04:21:16.787Z,8.00
2023-05-19T04:23:46.924Z,8.10
2023-05-19T04:26:18.212Z,8.20
2023-05-19T04:28:48.526Z,8.20
2023-05-19T04:31:18.729Z,8.30
2023-05-19T04:33:53.633Z,8.40
2023-05-19T04:36:24.235Z,8.50
2023-05-19T04:38:55.055Z,8.60
2023-05-19T04:41:25.176Z,8.70
2023-05-19T04:43:57.651Z,8.80
2023-05-19T04:46:30.480Z,8.90
2023-05-19T04:49:04.060Z,9.00
2023-05-19T04:51:35.978Z,9.20
2023-05-19T04:54:06.576Z,9.30
2023-05-19T04:56:36.677Z,9.40
2023-05-19T04:59:07.093Z,9.50
2023-05-19T05:01:40.503Z,9.60
2023-05-19T05:04:13.400Z,9.70
2023-05-19T05:06:48.008Z,9.80
2023-05-19T05:09:19.045Z,10.00
2023-05-19T05:11:50.135Z,10.20
2023-05-19T05:14:21.449Z,10.30
2023-05-19T05:16:53.865Z,10.40
2023-05-19T05:19:27.629Z,10.40
2023-05-19T05:21:58.884Z,10.50
2023-05-19T05:24:30.302Z,10.60
2023-05-19T05:27:00.389Z,10.60
2023-05-19T05:29:30.503Z,10.70
2023-05-19T05:32:00.614Z,10.80
2023-05-19T05:34:33.456Z,10.80
2023-05-19T05:37:03.548Z,10.80
2023-05-19T05:39:34.095Z,10.80
2023-05-19T05:42:04.181Z,11.00
2023-05-19T05:44:35.865Z,11.20
2023-05-19T08:21:03.893Z,16.50
2023-05-19T08:23:33.985Z,16.50
2023-05-19T08:26:04.268Z,16.70
2023-05-19T08:28:34.459Z,16.60
2023-05-19T08:31:04.679Z,16.60
2023-05-19T08:33:34.789Z,16.60
2023-05-19T08:36:08.910Z,16.70
2023-05-19T08:38:38.967Z,16.70
2023-05-19T08:41:09.151Z,16.80
2023-05-19T08:43:39.608Z,16.90
2023-05-19T08:46:10.011Z,17.20
2023-05-19T08:48:42.476Z,17.20
2023-05-19T08:51:24.163Z,17.20
2023-05-19T08:53:57.870Z,16.90
2023-05-19T08:56:28.033Z,17.10
2023-05-19T08:59:00.609Z,17.20
2023-05-19T09:01:31.868Z,17.20
2023-05-19T09:04:02.179Z,17.20
2023-05-19T09:06:35.517Z,17.30
2023-05-19T09:09:06.986Z,17.60
2023-05-19T09:11:38.010Z,17.40
2023-05-19T09:14:08.236Z,17.40
2023-05-19T09:16:38.455Z,17.20
2023-05-19T09:19:08.895Z,17.20
2023-05-19T09:21:42.089Z,16.90
2023-05-19T09:24:13.225Z,16.80
2023-05-19T09:26:45.565Z,16.90
2023-05-19T09:29:16.413Z,16.70
2023-05-19T09:31:53.027Z,16.70
2023-05-19T09:34:25.198Z,16.70
2023-05-19T09:37:00.012Z,16.90
2023-05-19T09:39:30.120Z,17.10
2023-05-19T09:42:00.656Z,17.10
2023-05-19T09:44:31.515Z,17.30
2023-05-19T09:47:02.418Z,17.50
2023-05-19T09:49:34.088Z,17.40
2023-05-19T09:52:10.002Z,17.10
2023-05-19T09:54:43.241Z,17.10
2023-05-19T09:57:13.701Z,17.10
2023-05-19T09:59:45.073Z,17.00
2023-05-19T10:02:21.485Z,17.10
2023-05-19T10:04:52.052Z,17.10
2023-05-19T10:07:27.537Z,17.30
2023-05-19T10:09:58.769Z,17.50
2023-05-19T10:12:29.750Z,17.50
2023-05-19T10:15:00.438Z,17.40
2023-05-19T10:17:31.917Z,17.40
2023-05-19T10:20:03.906Z,17.20
2023-05-19T10:22:37.042Z,17.30
2023-05-19T10:25:08.369Z,17.40
2023-05-19T10:27:43.264Z,17.10
2023-05-19T10:30:19.205Z,17.20
2023-05-19T10:32:52.774Z,17.60
2023-05-19T10:35:50.454Z,17.80
2023-05-19T10:38:32.519Z,17.90
2023-05-19T10:41:10.777Z,18.00
2023-05-19T10:44:01.209Z,17.80
2023-05-19T10:46:33.236Z,17.80
2023-05-19T10:49:03.366Z,18.00
2023-05-19T10:51:34.730Z,17.90
2023-05-19T10:54:14.406Z,17.80
2023-05-19T10:56:47.750Z,17.80
2023-05-19T10:59:37.397Z,17.90
2023-05-19T11:02:08.220Z,17.90
2023-05-19T11:04:51.110Z,18.10
2023-05-19T11:07:24.707Z,18.10
2023-05-19T11:09:57.910Z,18.10
2023-05-19T11:12:28.031Z,18.10
2023-05-19T11:14:58.502Z,18.10
2023-05-19T11:17:29.141Z,18.10
2023-05-19T11:20:00.923Z,18.00
2023-05-19T11:22:31.667Z,18.20
2023-05-19T11:25:04.395Z,18.20
2023-05-19T11:27:38.344Z,18.20
2023-05-19T11:30:17.958Z,18.20
2023-05-19T11:32:51.074Z,18.20
2023-05-19T11:35:22.861Z,18.10
2023-05-19T11:37:53.861Z,17.90
2023-05-19T11:40:27.302Z,18.00
2023-05-19T11:42:57.396Z,18.00
2023-05-19T11:45:31.890Z,18.10
2023-05-19T11:48:03.571Z,18.10
2023-05-19T11:50:35.492Z,18.00
2023-05-19T11:53:05.962Z,18.30
2023-05-19T11:55:45.178Z,18.30
2023-05-19T11:58:15.994Z,18.30
2023-05-19T12:00:48.690Z,18.10
2023-05-19T12:03:20.847Z,18.00
2023-05-19T12:05:52.466Z,18.10
2023-05-19T12:08:23.288Z,18.00
2023-05-19T12:10:56.456Z,17.90
2023-05-19T12:13:26.658Z,18.00
2023-05-19T12:15:56.946Z,18.10
2023-05-19T12:18:32.127Z,18.20
2023-05-19T12:21:02.314Z,18.20
2023-05-19T12:23:33.134Z,18.00
2023-05-19T12:26:06.291Z,17.90
2023-05-19T12:28:36.869Z,17.80
2023-05-19T12:31:07.115Z,17.80
2023-05-19T12:33:37.611Z,17.90
2023-05-19T12:36:09.708Z,17.90
2023-05-19T12:38:42.415Z,18.00
2023-05-19T12:41:16.975Z,18.00
2023-05-19T12:43:46.883Z,18.00
2023-05-19T12:46:18.257Z,18.10
2023-05-19T12:48:49.286Z,18.00
2023-05-19T12:51:22.976Z,18.00
2023-05-19T12:53:53.701Z,18.00
2023-05-19T12:56:29.828Z,18.30
2023-05-19T12:59:00.145Z,18.40
2023-05-19T13:01:32.445Z,18.30
2023-05-19T13:04:05.409Z,18.20
2023-05-19T13:06:36.329Z,18.20
2023-05-19T13:09:07.405Z,18.10
2023-05-19T13:11:40.632Z,18.10
2023-05-19T13:14:10.717Z,18.20
2023-05-19T13:16:41.137Z,18.20
2023-05-19T13:19:23.933Z,18.00
2023-05-19T13:21:55.519Z,17.90
2023-05-19T13:24:25.810Z,17.90
2023-05-19T13:26:58.616Z,17.90
2023-05-19T13:29:28.736Z,17.90
2023-05-19T13:32:01.578Z,18.10
2023-05-19T13:34:33.289Z,18.10
2023-05-19T13:37:03.885Z,18.00
2023-05-19T13:39:34.099Z,17.90
2023-05-19T13:42:12.836Z,17.70
2023-05-19T13:44:44.469Z,17.70
2023-05-19T13:47:14.827Z,17.80
2023-05-19T13:49:45.517Z,17.80
2023-05-19T13:52:15.799Z,17.80
2023-05-19T13:54:46.090Z,17.80
2023-05-19T13:57:18.961Z,17.70
2023-05-19T14:00:00.983Z,17.70
2023-05-19T14:02:34.131Z,17.80
2023-05-19T14:05:04.422Z,17.80
2023-05-19T14:07:35.579Z,17.70
2023-05-19T14:10:07.019Z,17.70
2023-05-19T14:12:55.155Z,17.60
2023-05-19T14:15:30.255Z,17.70
2023-05-19T14:18:00.389Z,17.90
2023-05-19T14:20:30.635Z,17.90
2023-05-19T14:23:00.813Z,17.90
2023-05-19T14:25:30.876Z,17.80
2023-05-19T14:28:04.045Z,17.70
2023-05-19T14:30:34.315Z,17.70
2023-05-19T14:33:04.725Z,17.60
2023-05-19T14:35:34.791Z,17.60
2023-05-19T14:38:04.880Z,17.60
2023-05-19T14:40:35.215Z,17.50
2023-05-19T14:43:08.065Z,17.50
2023-05-19T14:45:38.235Z,17.40
2023-05-19T14:48:08.956Z,17.50
2023-05-19T14:50:39.090Z,17.40
2023-05-19T14:53:09.369Z,17.40
2023-05-19T14:55:39.528Z,17.40
2023-05-19T14:58:27.558Z,17.50
2023-05-19T15:01:01.867Z,17.70
2023-05-19T15:03:32.113Z,17.90
2023-05-19T15:06:02.378Z,17.90
2023-05-19T15:08:32.493Z,17.90
2023-05-19T15:11:02.535Z,17.70
2023-05-19T15:13:35.246Z,17.70
2023-05-19T15:16:16.817Z,17.70
2023-05-19T15:18:48.390Z,17.80
2023-05-19T15:21:18.678Z,17.90
2023-05-19T15:23:48.820Z,17.90
2023-05-19T15:26:18.967Z,17.90
2023-05-19T15:28:51.623Z,17.90
2023-05-19T15:31:22.577Z,17.70
2023-05-19T15:33:52.694Z,17.50
2023-05-19T15:36:22.904Z,17.40
2023-05-19T15:38:52.977Z,17.40
2023-05-19T15:41:23.074Z,17.60
2023-05-19T15:43:56.210Z,17.70
2023-05-19T15:46:26.517Z,17.60
2023-05-19T15:48:56.646Z,17.60
2023-05-19T15:51:27.454Z,17.50
2023-05-19T15:53:57.543Z,17.40
2023-05-19T15:56:27.597Z,17.30
2023-05-19T15:59:00.490Z,17.30
2023-05-19T16:01:30.625Z,17.20
2023-05-19T16:04:02.418Z,17.10
2023-05-19T16:06:32.713Z,17.00
2023-05-19T16:09:02.829Z,16.90
2023-05-19T16:11:32.978Z,16.90
2023-05-19T16:14:05.668Z,16.90
2023-05-19T16:16:35.846Z,16.90
2023-05-19T16:19:05.984Z,16.80
2023-05-19T16:21:36.300Z,16.80
2023-05-19T16:24:06.833Z,16.80
2023-05-19T16:26:37.188Z,16.80
2023-05-19T16:29:10.345Z,16.90
2023-05-19T16:31:40.500Z,17.00
2023-05-19T16:34:10.603Z,17.00
2023-05-19T16:36:40.684Z,17.00
2023-05-19T16:39:10.979Z,17.00
2023-05-19T16:41:41.065Z,17.00
2023-05-19T16:44:14.782Z,17.00
2023-05-19T16:46:44.862Z,17.00
2023-05-19T16:49:15.034Z,16.90
2023-05-19T16:51:46.728Z,16.90
2023-05-19T16:54:17.593Z,16.90
2023-05-19T16:56:47.673Z,16.90
2023-05-19T16:59:20.387Z,17.00
2023-05-19T17:01:50.476Z,16.90
2023-05-19T17:04:20.569Z,16.90
2023-05-19T17:06:51.186Z,16.90
2023-05-19T17:09:25.244Z,16.90
2023-05-19T17:11:55.494Z,16.80
2023-05-19T17:14:28.250Z,16.90
2023-05-19T17:16:58.357Z,16.90
2023-05-19T17:19:28.626Z,16.80
2023-05-19T17:21:58.750Z,16.70
2023-05-19T17:24:29.082Z,16.60
2023-05-19T17:26:59.140Z,16.60
2023-05-19T17:29:31.895Z,16.50
2023-05-19T17:32:02.049Z,16.50
2023-05-19T17:34:32.183Z,16.50
2023-05-19T17:37:02.273Z,16.40
2023-05-19T17:39:32.356Z,16.40
2023-05-19T17:42:02.811Z,16.40
2023-05-19T17:44:35.461Z,16.30
2023-05-19T17:47:07.430Z,16.30
2023-05-19T17:49:37.694Z,16.20
2023-05-19T17:52:09.328Z,16.20
2023-05-19T17:54:40.299Z,16.20
2023-05-19T17:57:15.054Z,16.20
2023-05-19T17:59:48.600Z,16.10
2023-05-19T18:02:19.645Z,16.10
2023-05-19T18:04:50.740Z,16.10
2023-05-19T18:07:22.562Z,16.00
2023-05-19T18:09:55.040Z,16.00
2023-05-19T18:12:25.280Z,16.00
2023-05-19T18:14:57.930Z,15.90
2023-05-19T18:17:28.118Z,15.90
2023-05-19T18:19:58.251Z,15.90
2023-05-19T18:22:28.766Z,15.90
2023-05-19T18:25:00.177Z,15.80
2023-05-19T18:27:31.577Z,15.80
2023-05-19T18:30:04.318Z,15.80
2023-05-19T18:32:34.581Z,15.70
2023-05-19T18:35:04.968Z,15.70
2023-05-19T18:37:35.263Z,15.60
2023-05-19T18:40:05.378Z,15.60
2023-05-19T18:42:35.908Z,15.60
2023-05-19T18:45:10.395Z,15.60
2023-05-19T18:47:40.433Z,15.50
2023-05-19T18:50:12.193Z,15.50
2023-05-19T18:52:43.079Z,15.50
2023-05-19T18:55:13.650Z,15.40
2023-05-19T18:57:43.735Z,15.30
2023-05-19T19:00:20.486Z,15.30
2023-05-19T19:02:50.605Z,15.20
2023-05-19T19:05:21.038Z,15.20
2023-05-19T19:07:52.620Z,15.20
2023-05-19T19:10:23.135Z,15.10
2023-05-19T19:12:53.297Z,15.00
2023-05-19T19:15:26.207Z,15.00
2023-05-19T19:17:57.024Z,15.00
2023-05-19T19:20:27.132Z,15.00
2023-05-19T19:22:58.886Z,14.90
2023-05-19T19:25:28.962Z,14.80
2023-05-19T19:27:59.027Z,14.80
2023-05-19T19:30:32.842Z,14.80
2023-05-19T19:33:04.645Z,14.70
2023-05-19T19:35:35.509Z,14.70
2023-05-19T19:38:05.713Z,14.60
2023-05-19T19:40:36.243Z,14.50
2023-05-19T19:43:06.911Z,14.50
2023-05-19T19:45:39.849Z,14.50
2023-05-19T19:48:10.516Z,14.50
2023-05-19T19:50:40.923Z,14.40
2023-05-19T19:53:11.358Z,14.40
2023-05-19T19:55:41.682Z,14.30
2023-05-19T19:58:11.917Z,14.20
2023-05-19T20:00:44.610Z,14.30
2023-05-19T20:03:14.781Z,14.20
2023-05-19T20:05:45.015Z,14.10
2023-05-19T20:08:16.133Z,14.10
2023-05-19T20:10:46.321Z,14.10
2023-05-19T20:13:19.154Z,14.00
2023-05-19T20:15:52.134Z,14.00
2023-05-19T20:18:22.220Z,14.00
2023-05-19T20:20:52.315Z,14.00
2023-05-19T20:23:22.366Z,14.00
2023-05-19T20:26:10.346Z,13.90
2023-05-19T20:28:42.386Z,13.90
2023-05-19T20:31:15.058Z,13.80
2023-05-19T20:33:45.135Z,13.80
2023-05-19T20:36:15.287Z,13.80
2023-05-19T20:38:45.392Z,13.80
2023-05-19T20:41:15.472Z,13.70
2023-05-19T20:43:46.601Z,13.70
2023-05-19T20:46:19.352Z,13.70
2023-05-19T20:48:49.466Z,13.60
2023-05-19T20:51:19.594Z,13.50
2023-05-19T20:53:49.650Z,13.40
2023-05-19T20:56:19.759Z,13.30
2023-05-19T20:58:49.827Z,13.30
2023-05-19T21:01:22.585Z,13.20
2023-05-19T21:03:52.842Z,13.30
2023-05-19T21:06:22.899Z,13.20
2023-05-19T21:08:53.148Z,13.20
2023-05-19T21:11:23.226Z,13.20
2023-05-19T21:13:54.998Z,13.10
2023-05-19T21:16:27.800Z,13.10
2023-05-19T21:18:57.973Z,13.10
2023-05-19T21:21:28.324Z,13.00
2023-05-19T21:23:58.493Z,13.00
2023-05-19T21:26:29.182Z,12.90
2023-05-19T21:28:59.244Z,12.90
2023-05-19T21:31:32.099Z,12.80
2023-05-19T21:34:02.288Z,12.80
2023-05-19T21:36:32.424Z,12.80
2023-05-19T21:39:02.515Z,12.70
2023-05-19T21:41:33.069Z,12.70
2023-05-19T21:44:03.733Z,12.70
2023-05-19T21:46:36.488Z,12.60
2023-05-19T21:49:08.711Z,12.60
2023-05-19T21:51:38.845Z,12.60
2023-05-19T21:54:09.009Z,12.60
2023-05-19T21:56:39.040Z,12.50
2023-05-19T21:59:09.320Z,12.50
2023-05-19T22:01:42.506Z,12.40
2023-05-19T22:04:13.697Z,12.30
2023-05-19T22:06:43.767Z,12.20
2023-05-19T22:09:14.060Z,12.20
2023-05-19T22:11:44.162Z,12.20
2023-05-19T22:14:14.321Z,12.10
2023-05-19T22:16:47.738Z,12.10
2023-05-19T22:19:18.126Z,12.00
2023-05-19T22:21:48.343Z,12.00
2023-05-19T22:24:19.285Z,11.90
2023-05-19T22:26:49.348Z,11.90
2023-05-19T22:29:20.245Z,11.90
2023-05-19T22:31:52.935Z,11.80
2023-05-19T22:34:23.160Z,11.80
2023-05-19T22:36:53.306Z,11.70
2023-05-19T22:39:23.432Z,11.80
2023-05-19T22:41:53.462Z,11.80
2023-05-19T22:44:23.534Z,11.70
2023-05-19T22:46:56.241Z,11.70
2023-05-19T22:49:27.515Z,11.70
2023-05-19T22:51:57.575Z,11.70
2023-05-19T22:54:27.768Z,11.60
2023-05-19T22:56:57.826Z,11.60
2023-05-19T22:59:27.873Z,11.60
2023-05-19T23:02:00.751Z,11.60
2023-05-19T23:04:31.001Z,11.60
2023-05-19T23:07:01.136Z,11.60
2023-05-19T23:09:34.025Z,11.50
2023-05-19T23:12:04.085Z,11.50
2023-05-19T23:14:34.450Z,11.50
2023-05-19T23:17:07.661Z,11.50
2023-05-19T23:19:37.795Z,11.50
2023-05-19T23:22:08.892Z,11.30
2023-05-19T23:24:39.799Z,11.40
2023-05-19T23:27:09.881Z,11.30
2023-05-19T23:29:39.927Z,11.30
2023-05-19T23:32:12.718Z,11.30
2023-05-19T23:34:42.784Z,11.20
2023-05-19T23:37:12.886Z,11.20
2023-05-19T23:39:43.397Z,11.20
2023-05-19T23:42:13.512Z,11.10
2023-05-19T23:44:43.596Z,11.10
2023-05-19T23:47:16.218Z,11.10
2023-05-19T23:49:46.531Z,11.00
2023-05-19T23:52:16.587Z,11.10
2023-05-19T23:54:46.709Z,11.00
2023-05-19T23:57:16.750Z,11.00
2023-05-19T23:59:46.999Z,11.00
